Time;durP1;ratioP1;P1;durP2;ratioP2;P2;SDS_P1;SDS_P2;PMS_P1;PMS_P2;Temp;Humidity;BMP_temperature;BMP_pressure;BME280_temperature;BME280_humidity;BME280_pressure;Samples;Min_cycle;Max_cycle;Signal;HPM_P1;HPM_P2
2022/04/06 02:33:59;;;;;;;23.27;5.67;;;;;;;8.16;92.84;100262.75;683168;23;20656;-78
2022/04/06 02:36:32;;;;;;;15.73;6.80;;;;;;;8.04;92.74;100247.31;5174429;28;20320;-81
2022/04/06 02:39:03;;;;;;;15.65;5.28;;;;;;;8.10;92.82;100265.41;5193756;28;20034;-80
2022/04/06 02:41:35;;;;;;;18.17;5.47;;;;;;;8.08;92.67;100253.31;5193708;28;20033;-79
2022/04/06 02:44:06;;;;;;;21.07;5.77;;;;;;;8.06;92.55;100260.28;5193181;28;20029;-81
2022/04/06 02:46:55;;;;;;;18.47;5.50;;;;;;;7.98;92.41;100227.47;5193715;28;20576;-80
2022/04/06 02:49:27;;;;;;;15.43;5.03;;;;;;;7.90;92.62;100237.06;5193489;28;20027;-81
2022/04/06 02:52:04;;;;;;;15.10;4.87;;;;;;;7.90;92.81;100244.00;5194364;28;20094;-80
2022/04/06 02:54:36;;;;;;;13.05;4.72;;;;;;;7.92;92.68;100242.25;5193993;28;20278;-79
2022/04/06 02:57:09;;;;;;;17.50;5.00;;;;;;;7.94;93.01;100250.91;5193284;28;20418;-80
2022/04/06 03:03:14;;;;;;;23.00;5.72;;;;;;;7.78;92.04;100221.66;5091540;29;20500;-80
2022/04/06 03:06:13;;;;;;;20.00;4.60;;;;;;;7.84;91.88;100243.19;5033099;29;20053;-79
2022/04/06 03:12:13;;;;;;;15.95;4.50;;;;;;;7.74;91.54;100219.94;4995448;29;20516;-81
2022/04/06 03:14:51;;;;;;;17.08;4.70;;;;;;;7.84;91.61;100231.94;4939543;30;20522;-80
2022/04/06 03:17:30;;;;;;;17.23;4.95;;;;;;;7.71;91.43;100217.38;4921286;30;20394;-81
2022/04/06 03:20:23;;;;;;;16.02;5.90;;;;;;;7.80;90.51;100214.69;4920511;30;20369;-80
2022/04/06 03:34:21;;;;;;;14.85;4.07;;;;;;;7.81;89.58;100206.06;4867445;30;20537;-80
2022/04/06 04:23:03;;;;;;;13.73;4.13;;;;;;;7.80;87.48;100168.84;4996970;29;20053;-79
2022/04/06 04:25:34;;;;;;;12.65;3.67;;;;;;;7.84;87.78;100164.47;5036646;29;20273;-81
2022/04/06 04:28:06;;;;;;;26.03;5.73;;;;;;;7.86;88.50;100175.72;5036957;29;20117;-80
2022/04/06 04:30:37;;;;;;;22.97;5.07;;;;;;;7.96;88.12;100177.31;5037686;29;20507;-80
2022/04/06 04:33:09;;;;;;;24.30;5.93;;;;;;;7.95;88.37;100170.44;5041779;29;20042;-81
2022/04/06 04:35:40;;;;;;;17.80;5.43;;;;;;;7.97;88.88;100176.44;5050041;29;20599;-79
2022/04/06 04:38:12;;;;;;;18.37;5.07;;;;;;;7.96;89.33;100172.13;5060031;29;20045;-80
2022/04/06 04:40:43;;;;;;;17.53;5.90;;;;;;;7.94;89.64;100171.28;5058743;29;20131;-81
2022/04/06 04:43:15;;;;;;;20.83;5.50;;;;;;;7.96;90.05;100166.94;5061348;29;20128;-80
2022/04/06 04:45:46;;;;;;;22.93;7.23;;;;;;;7.96;90.29;100174.72;5057631;29;20049;-80
2022/04/06 04:48:18;;;;;;;19.70;5.77;;;;;;;7.94;90.50;100171.28;5055200;29;20050;-80
2022/04/06 04:50:49;;;;;;;21.37;6.73;;;;;;;7.98;90.63;100161.72;5062145;29;20049;-79
2022/04/06 04:53:20;;;;;;;16.53;5.53;;;;;;;7.98;90.24;100172.97;5094707;29;20052;-80
2022/04/06 04:55:53;;;;;;;17.40;5.87;;;;;;;7.98;90.68;100161.72;5161115;28;20094;-80
2022/04/06 04:58:26;;;;;;;21.20;5.75;;;;;;;7.98;90.60;100154.78;5196884;28;20169;-80
2022/04/06 05:00:58;;;;;;;18.90;7.10;;;;;;;8.01;90.02;100157.34;5179680;28;20704;-80
2022/04/06 05:03:30;;;;;;;20.20;7.30;;;;;;;8.02;90.06;100153.88;5197083;28;20113;-85
2022/04/06 05:06:02;;;;;;;18.80;6.05;;;;;;;8.00;90.15;100152.19;5196738;28;20022;-81
2022/04/06 05:08:33;;;;;;;19.77;7.00;;;;;;;7.97;90.35;100134.03;5195200;28;20037;-80
2022/04/06 05:11:05;;;;;;;18.67;8.10;;;;;;;7.99;89.89;100147.88;5179160;28;20038;-81
2022/04/06 05:13:37;;;;;;;20.70;5.43;;;;;;;8.01;89.49;100144.38;5195859;28;20069;-79
2022/04/06 05:16:09;;;;;;;23.42;6.80;;;;;;;8.01;88.98;100146.97;5196170;28;20026;-79
2022/04/06 05:18:40;;;;;;;16.63;6.00;;;;;;;8.03;89.01;100145.22;5197590;28;20034;-79
2022/04/06 05:21:11;;;;;;;21.00;6.87;;;;;;;8.04;88.74;100159.91;5198634;28;20037;-80
2022/04/06 05:23:43;;;;;;;17.30;6.77;;;;;;;8.04;88.94;100141.75;5197828;28;20034;-80
2022/04/06 05:26:14;;;;;;;16.70;6.30;;;;;;;8.04;88.78;100144.34;5200476;28;20057;-80
2022/04/06 05:28:45;;;;;;;22.13;6.00;;;;;;;8.06;88.67;100140.88;5198157;28;20451;-80
2022/04/06 05:31:17;;;;;;;22.47;5.40;;;;;;;8.04;88.89;100144.34;5196804;28;20057;-79
2022/04/06 05:33:49;;;;;;;22.57;6.60;;;;;;;8.09;88.06;100141.69;5197781;28;20034;-81
2022/04/06 05:36:20;;;;;;;21.83;5.87;;;;;;;8.02;88.62;100133.13;5212861;28;20045;-81
2022/04/06 05:38:55;;;;;;;15.10;5.17;;;;;;;8.04;88.55;100136.53;5215910;28;20034;-80
2022/04/06 05:41:27;;;;;;;15.55;4.40;;;;;;;8.02;88.30;100134.88;5215250;28;20537;-78
2022/04/06 05:43:58;;;;;;;19.55;5.55;;;;;;;8.08;88.16;100133.91;5217178;28;20030;-79
2022/04/06 05:46:29;;;;;;;22.83;5.67;;;;;;;8.02;88.33;100135.72;5216592;28;20104;-80
2022/04/06 05:49:01;;;;;;;13.17;4.30;;;;;;;8.04;88.13;100127.91;5216107;28;20389;-80
2022/04/06 05:51:34;;;;;;;17.43;5.30;;;;;;;8.02;87.74;100122.75;5215409;28;20036;-78
2022/04/06 05:54:05;;;;;;;18.70;5.15;;;;;;;8.09;87.13;100126.09;5215774;28;20033;-79
2022/04/06 05:56:37;;;;;;;8.40;3.77;;;;;;;8.12;85.74;100135.59;5215653;28;20107;-81
2022/04/06 05:59:08;;;;;;;13.53;5.10;;;;;;;8.11;85.60;100124.34;5198049;28;20041;-81
2022/04/06 06:01:39;;;;;;;13.43;4.43;;;;;;;8.17;84.93;100128.59;5215390;28;20056;-78
2022/04/06 06:04:11;;;;;;;10.60;4.03;;;;;;;8.20;83.86;100132.00;5215223;28;20033;-80
2022/04/06 06:06:42;;;;;;;18.50;4.50;;;;;;;8.16;84.52;100139.88;5216053;28;20025;-81
2022/04/06 06:09:14;;;;;;;11.70;4.63;;;;;;;8.21;83.94;100132.88;5215569;28;20457;-82
2022/04/06 06:11:45;;;;;;;9.10;3.60;;;;;;;8.23;83.19;100133.72;5215514;28;20025;-80
2022/04/06 06:14:16;;;;;;;13.13;3.83;;;;;;;8.28;80.76;100139.72;5220142;28;20072;-79
2022/04/06 06:16:49;;;;;;;9.27;2.53;;;;;;;8.30;79.67;100144.88;5218433;28;20586;-80
2022/04/06 06:19:20;;;;;;;;;;;;;;;8.42;78.69;100141.25;5224390;28;20059;-79
2022/04/06 06:21:52;;;;;;;11.60;2.90;;;;;;;8.34;78.36;100159.53;5221366;28;20001;-81
2022/04/06 06:24:24;;;;;;;13.03;3.00;;;;;;;8.43;76.90;100148.16;5197706;28;20553;-84
2022/04/06 06:26:55;;;;;;;8.00;2.65;;;;;;;8.43;76.82;100148.16;5214757;28;20076;-82
2022/04/06 06:29:27;;;;;;;5.77;2.03;;;;;;;8.43;76.19;100141.25;5215408;28;20028;-83
2022/04/06 06:31:58;;;;;;;7.73;3.20;;;;;;;8.45;76.03;100139.47;5215599;28;20109;-79
2022/04/06 06:34:30;;;;;;;6.67;2.00;;;;;;;8.53;74.76;100132.47;5215357;28;20486;-83
2022/04/06 06:37:01;;;;;;;6.47;2.17;;;;;;;8.55;75.04;100133.28;5215440;28;20153;-81
2022/04/06 06:39:33;;;;;;;10.07;2.20;;;;;;;8.57;74.42;100139.31;5214970;28;20052;-80
2022/04/06 06:42:05;;;;;;;13.77;3.63;;;;;;;8.57;72.93;100141.06;5214284;28;20030;-81
2022/04/06 06:44:36;;;;;;;13.85;2.67;;;;;;;8.52;73.68;100128.13;5214511;28;20030;-79
2022/04/06 06:47:07;;;;;;;8.50;2.30;;;;;;;8.55;73.37;100129.84;5214999;28;20209;-78
2022/04/06 06:49:45;;;;;;;8.20;2.30;;;;;;;8.57;72.67;100125.47;5214426;28;20080;-79
2022/04/06 06:52:16;;;;;;;9.32;2.33;;;;;;;8.66;72.56;100119.28;5215024;28;20030;-80
2022/04/06 06:54:48;;;;;;;7.10;2.70;;;;;;;8.69;73.20;100130.47;5196446;28;20037;-79
2022/04/06 06:57:19;;;;;;;5.80;2.77;;;;;;;8.72;71.92;100119.19;5197090;28;20572;-82
2022/04/06 06:59:51;;;;;;;8.50;2.73;;;;;;;8.76;71.18;100136.44;5214462;28;20049;-79
2022/04/06 07:02:22;;;;;;;8.40;2.07;;;;;;;8.78;71.42;100118.25;5214725;28;20030;-80
2022/04/06 07:04:54;;;;;;;7.97;1.70;;;;;;;8.80;71.10;100127.72;5214653;28;20076;-79
2022/04/06 07:07:27;;;;;;;8.43;1.83;;;;;;;8.82;72.00;100125.09;5196447;28;20026;-80
2022/04/06 07:10:00;;;;;;;7.10;2.13;;;;;;;8.82;72.29;100119.88;5214247;28;20022;-80
2022/04/06 07:12:31;;;;;;;7.45;3.03;;;;;;;8.75;72.08;100124.31;5197035;28;20426;-81
2022/04/06 07:15:03;;;;;;;11.73;2.27;;;;;;;8.69;73.54;100119.22;5213248;28;20030;-80
2022/04/06 07:17:34;;;;;;;13.10;3.63;;;;;;;8.69;74.77;100112.28;5196420;28;20440;-80
2022/04/06 07:20:07;;;;;;;9.40;3.10;;;;;;;8.64;76.62;100116.69;5214321;28;20111;-83
2022/04/06 07:22:38;;;;;;;12.75;4.20;;;;;;;8.63;77.75;100109.81;5214082;28;20231;-80
2022/04/06 07:25:09;;;;;;;8.53;3.17;;;;;;;8.62;79.30;100117.63;5196101;28;20034;-79
2022/04/06 07:27:41;;;;;;;8.53;4.47;;;;;;;8.61;79.64;100101.16;5214307;28;20038;-80
2022/04/06 07:30:14;;;;;;;15.40;4.53;;;;;;;8.63;79.90;100106.31;5213738;28;20018;-81
2022/04/06 07:32:45;;;;;;;14.07;4.93;;;;;;;8.66;80.47;100112.34;5217976;28;20408;-79
2022/04/06 07:35:17;;;;;;;12.60;4.77;;;;;;;8.56;80.22;100110.75;5200069;28;20065;-80
2022/04/06 07:37:50;;;;;;;9.25;4.28;;;;;;;8.56;80.78;100098.66;5200550;28;20076;-81
2022/04/06 07:40:24;;;;;;;11.00;3.72;;;;;;;8.56;81.42;100097.78;5217938;28;20509;-82
2022/04/06 07:42:55;;;;;;;13.63;4.35;;;;;;;8.57;81.99;100092.56;5217868;28;20453;-80
2022/04/06 07:45:26;;;;;;;12.13;3.40;;;;;;;8.60;81.10;100093.38;5217515;28;20053;-81
2022/04/06 07:47:58;;;;;;;9.50;3.40;;;;;;;8.63;81.04;100091.63;5218503;28;20504;-81
2022/04/06 07:50:29;;;;;;;16.20;4.10;;;;;;;8.69;80.94;100085.44;5199895;28;20477;-80
2022/04/06 07:53:01;;;;;;;17.17;4.73;;;;;;;8.81;80.18;100077.47;5200086;28;20038;-81
2022/04/06 07:55:33;;;;;;;10.37;3.80;;;;;;;8.88;79.75;100078.22;5218229;28;20028;-82
2022/04/06 07:58:04;;;;;;;17.80;4.78;;;;;;;9.07;79.73;100083.94;5217689;28;20026;-81
2022/04/06 08:00:39;;;;;;;15.37;4.63;;;;;;;9.09;78.92;100063.97;5199594;28;20080;-80
2022/04/06 08:03:10;;;;;;;11.48;3.53;;;;;;;9.20;79.20;100080.22;5217322;28;20366;-78
2022/04/06 08:05:41;;;;;;;10.43;3.40;;;;;;;9.26;78.62;100071.47;5217908;28;20033;-86
2022/04/06 08:08:13;;;;;;;13.47;3.90;;;;;;;9.27;77.91;100065.38;5218045;28;20282;-84
2022/04/06 08:10:45;;;;;;;9.97;3.83;;;;;;;9.23;78.32;100072.38;5217880;28;20030;-82
2022/04/06 08:13:16;;;;;;;12.50;3.90;;;;;;;9.31;78.56;100065.28;5200420;28;20034;-80
2022/04/06 08:15:47;;;;;;;12.30;3.03;;;;;;;9.23;77.63;100071.53;5199655;28;20033;-80
2022/04/06 08:18:21;;;;;;;12.00;4.13;;;;;;;9.16;78.58;100069.91;5199637;28;20081;-81
2022/04/06 08:20:53;;;;;;;13.18;3.70;;;;;;;9.07;78.46;100070.94;5217336;28;20129;-81
2022/04/06 08:23:24;;;;;;;12.33;3.30;;;;;;;9.11;79.24;100072.59;5218301;28;20088;-81
2022/04/06 08:25:55;;;;;;;10.73;3.00;;;;;;;9.08;79.00;100070.91;5218228;28;20026;-81
2022/04/06 08:28:27;;;;;;;11.77;2.70;;;;;;;9.04;79.02;100069.25;5199355;28;20508;-83
2022/04/06 08:30:59;;;;;;;10.43;3.40;;;;;;;9.09;79.17;100074.38;5217390;28;20117;-81
2022/04/06 08:33:30;;;;;;;9.43;3.00;;;;;;;9.02;79.02;100084.03;5218413;28;20034;-82
2022/04/06 08:36:06;;;;;;;11.27;3.30;;;;;;;8.92;79.40;100074.69;5216995;28;20512;-79
2022/04/06 08:38:37;;;;;;;10.93;2.97;;;;;;;8.88;79.13;100067.81;5217211;28;20037;-78
2022/04/06 08:41:10;;;;;;;9.00;2.77;;;;;;;8.86;80.09;100067.84;5219715;28;20022;-80
2022/04/06 08:43:42;;;;;;;13.90;3.47;;;;;;;8.87;79.57;100079.06;5228602;28;20053;-78
2022/04/06 08:46:15;;;;;;;12.38;3.45;;;;;;;8.99;79.82;100065.88;5206663;28;20133;-79
2022/04/06 08:48:54;;;;;;;10.63;3.10;;;;;;;9.07;79.80;100061.41;5221260;28;20052;-79
2022/04/06 08:51:28;;;;;;;9.75;2.88;;;;;;;9.15;79.09;100061.25;5204368;28;20030;-80
2022/04/06 08:54:00;;;;;;;12.25;3.80;;;;;;;9.22;78.54;100049.00;5220056;28;20068;-80
2022/04/06 08:56:31;;;;;;;8.43;2.50;;;;;;;9.29;78.50;100055.81;5200789;28;20030;-79
2022/04/06 08:59:04;;;;;;;13.83;3.17;;;;;;;9.43;78.14;100058.97;5218324;28;20034;-83
2022/04/06 09:01:35;;;;;;;;;;;;;;;9.46;78.29;100058.06;5200597;28;20125;-82
2022/04/06 09:04:07;;;;;;;16.10;3.17;;;;;;;9.35;79.14;100058.25;5217586;28;19917;-81
2022/04/06 09:06:44;;;;;;;8.97;2.90;;;;;;;9.27;79.19;100055.84;5218028;28;20031;-81
2022/04/06 09:09:24;;;;;;;13.48;3.70;;;;;;;9.19;79.89;100065.50;5217927;28;20065;-82
2022/04/06 09:11:56;;;;;;;12.68;3.60;;;;;;;9.12;80.60;100071.72;5217101;28;20060;-81
2022/04/06 09:14:31;;;;;;;9.90;3.30;;;;;;;9.15;80.84;100069.06;5201843;28;20081;-81
2022/04/06 09:17:07;;;;;;;10.48;3.38;;;;;;;9.30;80.26;100058.34;5199345;28;20044;-81
2022/04/06 09:19:45;;;;;;;11.90;3.40;;;;;;;9.22;80.26;100056.81;5218161;28;20113;-86
2022/04/06 09:22:17;;;;;;;14.18;3.75;;;;;;;9.26;81.12;100087.06;5218297;28;20030;-82
2022/04/06 09:24:58;;;;;;;12.13;4.70;;;;;;;8.80;84.66;100064.50;5221342;28;20108;-81
2022/04/06 09:27:30;;;;;;;9.77;3.50;;;;;;;8.63;85.87;100051.75;5227546;28;20022;-81
2022/04/06 09:30:03;;;;;;;8.85;3.90;;;;;;;8.60;85.03;100052.69;5227572;28;20029;-83
2022/04/06 09:32:34;;;;;;;14.05;4.68;;;;;;;8.69;84.81;100067.25;5209056;28;20076;-81
2022/04/06 09:35:26;;;;;;;11.00;3.50;;;;;;;8.80;84.35;100054.09;5227119;28;20030;-80
2022/04/06 09:38:09;;;;;;;9.40;3.67;;;;;;;8.93;82.28;100051.25;5207314;28;20030;-81
2022/04/06 09:40:42;;;;;;;11.52;3.70;;;;;;;9.06;82.67;100053.63;5203945;28;20045;-82
2022/04/06 09:43:28;;;;;;;9.13;3.55;;;;;;;9.13;81.63;100060.44;5206850;28;20092;-82
2022/04/06 09:49:16;;;;;;;11.40;3.72;;;;;;;9.25;81.34;100055.00;5223343;28;20042;-80
2022/04/06 09:51:53;;;;;;;13.30;3.15;;;;;;;9.29;81.14;100058.41;5224490;28;20033;-81
2022/04/06 09:54:26;;;;;;;10.35;3.40;;;;;;;9.22;83.02;100072.41;5225027;28;20022;-81
2022/04/06 09:56:58;;;;;;;13.30;3.45;;;;;;;9.22;83.65;100047.25;5226163;28;20034;-81
2022/04/06 09:59:32;;;;;;;19.87;4.70;;;;;;;9.33;82.97;100049.66;5221971;28;20049;-80
2022/04/06 10:02:09;;;;;;;9.25;3.78;;;;;;;9.36;81.59;100047.00;5221799;28;20096;-78
2022/04/06 10:04:43;;;;;;;8.32;3.05;;;;;;;9.43;81.70;100040.75;5218589;28;20389;-82
2022/04/06 10:07:15;;;;;;;13.80;3.55;;;;;;;9.35;82.44;100029.66;5200576;28;20037;-82
2022/04/06 10:09:48;;;;;;;12.83;3.33;;;;;;;9.19;83.75;100036.91;5220574;28;20075;-83
2022/04/06 10:12:19;;;;;;;13.10;3.85;;;;;;;9.06;85.20;100033.66;5219703;28;20112;-83
2022/04/06 10:14:52;;;;;;;9.00;3.57;;;;;;;9.15;84.37;100040.47;5199460;28;20137;-83
2022/04/06 10:17:25;;;;;;;13.27;3.47;;;;;;;9.31;83.98;100025.41;5216642;28;20038;-80
2022/04/06 10:20:11;;;;;;;13.02;3.67;;;;;;;9.42;83.08;100028.66;5215866;28;20111;-79
2022/04/06 10:23:06;;;;;;;9.68;3.05;;;;;;;9.25;82.92;100028.13;5200518;28;20120;-82
2022/04/06 10:25:50;;;;;;;10.30;3.42;;;;;;;9.03;85.84;100038.06;5113625;29;20048;-83
2022/04/06 10:28:22;;;;;;;8.27;3.20;;;;;;;8.78;85.35;100029.88;5114572;29;20032;-79
2022/04/06 10:31:11;;;;;;;8.50;3.30;;;;;;;8.64;87.75;100035.31;5119198;29;20052;-83
2022/04/06 10:33:44;;;;;;;8.93;2.85;;;;;;;8.52;87.26;100018.19;5120962;29;20039;-81
2022/04/06 10:36:22;;;;;;;18.02;5.43;;;;;;;8.57;86.63;100016.38;5117208;29;20510;-83
2022/04/06 10:39:10;;;;;;;12.88;4.07;;;;;;;8.68;87.20;100027.44;5115055;29;20036;-81
2022/04/06 10:42:14;;;;;;;8.75;4.15;;;;;;;8.90;85.07;100038.31;5115613;29;20461;-76
2022/04/06 10:44:46;;;;;;;10.18;4.20;;;;;;;8.89;84.15;100027.94;5116590;29;20484;-78
2022/04/06 10:47:17;;;;;;;15.43;3.37;;;;;;;8.98;86.20;100021.72;5097601;29;20040;-81
2022/04/06 10:50:10;;;;;;;13.43;3.77;;;;;;;8.89;87.51;100026.19;5112437;29;20044;-82
2022/04/06 10:52:45;;;;;;;12.40;4.65;;;;;;;8.68;87.52;100030.03;5115174;29;20040;-83
2022/04/06 10:55:24;;;;;;;6.68;3.20;;;;;;;8.77;87.45;100018.59;5112293;29;20149;-81
2022/04/06 10:58:03;;;;;;;12.25;4.45;;;;;;;8.92;86.99;100020.09;5112099;29;20416;-81
2022/04/06 11:00:39;;;;;;;7.55;2.88;;;;;;;9.12;85.38;100011.91;5113633;29;20067;-84
2022/04/06 11:03:16;;;;;;;7.63;2.88;;;;;;;9.19;84.39;100013.50;5188568;28;20069;-81
2022/04/06 11:05:49;;;;;;;10.70;3.08;;;;;;;9.33;85.11;100001.97;5214900;28;20026;-82
2022/04/06 11:11:39;;;;;;;6.90;2.72;;;;;;;9.28;84.32;99995.13;5216204;28;20498;-80
2022/04/06 11:14:26;;;;;;;7.72;2.85;;;;;;;9.38;83.59;100011.38;5214818;28;20022;-79
2022/04/06 11:16:57;;;;;;;12.40;3.15;;;;;;;9.40;82.54;100000.94;5214876;28;20511;-78
2022/04/06 11:19:30;;;;;;;9.87;3.53;;;;;;;9.53;82.46;99979.03;5214660;28;20042;-80
2022/04/06 11:22:03;;;;;;;7.57;2.80;;;;;;;9.62;80.87;99993.56;5197327;28;20468;-83
2022/04/06 11:24:36;;;;;;;6.10;2.40;;;;;;;9.66;80.03;99982.22;5215743;28;20246;-82
2022/04/06 11:27:08;;;;;;;9.95;3.00;;;;;;;9.73;79.87;99986.38;5215677;28;20080;-84
2022/04/06 11:29:39;;;;;;;10.07;2.87;;;;;;;9.76;79.53;99975.91;5215173;28;20034;-85
2022/04/06 11:32:11;;;;;;;9.60;3.43;;;;;;;9.81;79.80;99983.59;5196872;28;20115;-83
2022/04/06 11:34:42;;;;;;;5.97;3.40;;;;;;;9.84;79.74;99971.38;5215076;28;20026;-79
2022/04/06 11:37:15;;;;;;;7.83;2.67;;;;;;;9.78;77.98;99974.13;5215395;28;20103;-77
2022/04/06 11:39:46;;;;;;;9.57;2.90;;;;;;;9.82;78.28;99973.16;5214819;28;20113;-83
2022/04/06 11:42:17;;;;;;;7.40;2.37;;;;;;;9.74;78.42;99972.50;5215136;28;20168;-81
2022/04/06 11:44:49;;;;;;;4.77;2.87;;;;;;;9.83;77.85;99974.00;5215135;28;20022;-80
2022/04/06 11:47:35;;;;;;;9.67;3.10;;;;;;;9.88;78.09;99969.56;5215076;28;20029;-80
2022/04/06 11:50:11;;;;;;;7.03;2.80;;;;;;;9.91;77.65;99960.81;5214619;28;20387;-80
2022/04/06 11:52:43;;;;;;;5.50;3.25;;;;;;;9.94;77.47;99972.00;5213849;28;20141;-82
2022/04/06 11:55:15;;;;;;;9.73;3.97;;;;;;;9.99;77.70;99957.13;5214406;28;20510;-79
2022/04/06 11:57:46;;;;;;;7.80;2.80;;;;;;;10.00;77.00;99968.44;5214968;28;20022;-84
2022/04/06 12:00:18;;;;;;;9.87;3.23;;;;;;;9.91;77.04;99961.66;5215640;28;20034;-80
2022/04/06 12:02:52;;;;;;;9.30;4.05;;;;;;;10.01;76.88;99949.28;5215390;28;20026;-82
2022/04/06 12:05:25;;;;;;;6.93;2.95;;;;;;;10.01;76.31;99934.53;5222131;28;20034;-81
2022/04/06 12:08:15;;;;;;;7.75;3.45;;;;;;;10.04;76.40;99946.63;5205741;28;20056;-81
2022/04/06 12:10:56;;;;;;;6.28;2.75;;;;;;;10.06;76.40;99941.38;5201204;28;20038;-83
2022/04/06 12:13:30;;;;;;;6.32;2.92;;;;;;;10.02;76.52;99943.19;5199925;28;20034;-81
2022/04/06 12:16:03;;;;;;;11.00;3.78;;;;;;;10.01;76.75;99931.06;5216321;28;20652;-82
2022/04/06 12:18:38;;;;;;;9.32;2.90;;;;;;;10.09;77.05;99930.88;5218175;28;20029;-81
2022/04/06 12:21:26;;;;;;;8.73;3.67;;;;;;;9.95;77.29;99929.47;5202590;28;20030;-82
2022/04/06 12:23:58;;;;;;;15.07;3.88;;;;;;;9.97;78.18;99924.25;5218568;28;20061;-81
2022/04/06 12:26:40;;;;;;;6.20;3.30;;;;;;;10.00;78.82;99925.00;5218011;28;20064;-80
2022/04/06 12:29:14;;;;;;;;;;;;;;;10.04;77.91;99925.78;5217988;28;20038;-81
2022/04/06 12:31:47;;;;;;;7.95;3.88;;;;;;;9.81;78.42;99914.19;5217396;28;19989;-81
2022/04/06 12:34:40;;;;;;;6.55;3.30;;;;;;;9.80;79.54;99912.47;5199995;28;20046;-81
2022/04/06 12:37:30;;;;;;;9.68;3.72;;;;;;;9.80;79.52;99907.25;5217663;28;20049;-82
2022/04/06 12:40:03;;;;;;;8.15;3.38;;;;;;;9.82;79.17;99900.28;5217479;28;20388;-81
2022/04/06 12:42:36;;;;;;;6.05;3.03;;;;;;;9.91;78.37;99900.94;5216957;28;20169;-81
2022/04/06 12:45:09;;;;;;;12.68;4.72;;;;;;;10.04;78.38;99894.53;5199484;28;20049;-81
2022/04/06 12:47:41;;;;;;;10.02;3.30;;;;;;;10.01;77.66;99890.28;5217375;28;20034;-81
2022/04/06 12:50:19;;;;;;;7.93;3.63;;;;;;;10.11;76.57;99893.50;5217422;28;20036;-79
2022/04/06 12:53:08;;;;;;;7.25;3.50;;;;;;;10.08;77.12;99893.59;5217473;28;20045;-80
2022/04/06 12:55:41;;;;;;;8.55;3.53;;;;;;;10.13;77.15;99873.47;5198661;28;20042;-80
2022/04/06 12:58:19;;;;;;;8.30;3.15;;;;;;;10.17;76.90;99877.69;5217128;28;20034;-79
2022/04/06 13:00:57;;;;;;;10.88;3.40;;;;;;;10.26;76.08;99866.22;5216390;28;20076;-83
2022/04/06 13:03:29;;;;;;;7.15;3.25;;;;;;;10.25;76.46;99864.50;5217257;28;20808;-82
2022/04/06 13:06:00;;;;;;;8.00;3.53;;;;;;;10.29;76.34;99853.09;5199447;28;20026;-82
2022/04/06 13:08:32;;;;;;;8.73;3.70;;;;;;;10.19;75.82;99846.41;5198145;28;20128;-80
2022/04/06 13:11:03;;;;;;;6.93;3.53;;;;;;;10.39;75.78;99835.50;5199005;28;20072;-81
2022/04/06 13:13:34;;;;;;;5.57;3.43;;;;;;;10.58;75.40;99821.06;5216279;28;20300;-79
2022/04/06 13:16:09;;;;;;;5.80;3.10;;;;;;;10.72;74.17;99827.63;5216731;28;20057;-78
2022/04/06 13:18:40;;;;;;;7.78;2.88;;;;;;;10.69;74.39;99835.53;5216151;28;20030;-78
2022/04/06 13:21:13;;;;;;;10.50;3.20;;;;;;;10.74;74.04;99857.13;5217189;28;20029;-78
2022/04/06 13:23:45;;;;;;;8.20;3.20;;;;;;;10.64;74.37;99835.69;5183540;28;20125;-77
2022/04/06 13:26:17;;;;;;;9.27;3.20;;;;;;;10.55;74.11;99836.78;5199140;28;20433;-80
2022/04/06 13:28:48;;;;;;;6.72;2.90;;;;;;;10.64;74.39;99821.78;5197213;28;20042;-80
2022/04/06 13:31:20;;;;;;;6.17;3.50;;;;;;;10.60;73.90;99821.03;5198510;28;20044;-79
2022/04/06 13:33:51;;;;;;;12.00;4.10;;;;;;;10.70;73.94;99826.84;5198092;28;20116;-79
2022/04/06 13:36:23;;;;;;;9.73;3.57;;;;;;;10.66;73.17;99846.94;5215741;28;20440;-81
2022/04/06 13:38:54;;;;;;;7.57;3.70;;;;;;;10.56;73.54;99815.06;5196454;28;20038;-80
2022/04/06 13:41:27;;;;;;;7.47;3.37;;;;;;;10.52;73.36;99818.63;5198047;28;20137;-80
2022/04/06 13:43:58;;;;;;;10.18;3.47;;;;;;;10.45;74.17;99805.81;5197669;28;20029;-80
2022/04/06 13:46:30;;;;;;;6.40;2.90;;;;;;;10.40;74.40;99811.19;5215980;28;20032;-80
2022/04/06 13:49:02;;;;;;;7.87;3.10;;;;;;;10.36;74.68;99794.75;5201022;28;20030;-79
2022/04/06 13:51:33;;;;;;;5.03;3.00;;;;;;;10.34;74.91;99809.59;5219394;28;20026;-81
2022/04/06 13:54:04;;;;;;;8.13;4.00;;;;;;;10.37;74.89;99801.69;5218542;28;20477;-80
2022/04/06 13:56:36;;;;;;;11.07;4.27;;;;;;;10.40;74.84;99792.94;5218516;28;20794;-78
2022/04/06 13:59:07;;;;;;;8.10;3.90;;;;;;;10.32;74.96;99797.44;5218092;28;20061;-81
2022/04/06 14:01:39;;;;;;;6.73;3.10;;;;;;;10.30;75.54;99784.47;5204800;28;20037;-79
2022/04/06 14:04:12;;;;;;;5.80;3.55;;;;;;;10.32;75.33;99795.75;5220293;28;20033;-80
2022/04/06 14:06:50;;;;;;;;;;;;;;;10.29;75.63;99797.53;5220745;28;20068;-81
2022/04/06 14:09:22;;;;;;;4.00;2.80;;;;;;;10.31;75.70;99788.78;5203982;28;19917;-78
2022/04/06 14:11:56;;;;;;;6.30;3.25;;;;;;;10.37;74.71;99787.81;5202636;28;20030;-80
2022/04/06 14:14:30;;;;;;;5.32;3.38;;;;;;;10.38;74.98;99773.88;5202392;28;20060;-83
2022/04/06 15:51:11;;;;;;;8.52;6.35;;;;;;;8.85;92.44;99668.47;5127570;29;20064;-85
2022/04/06 15:57:58;;;;;;;9.63;6.38;;;;;;;8.69;96.94;99662.78;5076285;29;21029;-82
2022/04/06 16:11:23;;;;;;;12.10;6.57;;;;;;;8.47;100.00;99638.19;5055989;29;20756;-88
2022/04/06 16:45:48;;;;;;;13.35;7.75;;;;;;;8.18;100.00;99639.69;5023393;29;20034;-83
2022/04/06 16:48:19;;;;;;;11.57;7.68;;;;;;;8.07;100.00;99637.31;5010843;29;20760;-82
2022/04/06 16:53:41;;;;;;;13.88;9.60;;;;;;;8.03;100.00;99574.22;5062019;29;20099;-88
2022/04/06 16:56:12;;;;;;;13.03;10.33;;;;;;;7.99;100.00;99563.94;5157014;29;20055;-87
2022/04/06 16:58:44;;;;;;;13.27;9.90;;;;;;;7.98;100.00;99563.06;5155696;29;20035;-84
2022/04/06 17:01:16;;;;;;;11.93;8.77;;;;;;;7.97;100.00;99563.97;5154881;29;20078;-86
2022/04/06 17:03:47;;;;;;;13.07;9.77;;;;;;;8.00;100.00;99568.22;5153854;28;20135;-84
2022/04/06 17:06:19;;;;;;;12.67;8.87;;;;;;;8.02;100.00;99569.91;5155863;29;20117;-84
2022/04/06 17:08:50;;;;;;;13.77;8.70;;;;;;;7.94;100.00;99573.59;5195455;28;20037;-84
2022/04/06 17:11:22;;;;;;;13.77;9.10;;;;;;;7.96;100.00;99567.44;5193697;28;20029;-85
2022/04/06 17:13:54;;;;;;;11.43;9.20;;;;;;;7.91;100.00;99579.69;5211182;28;20705;-86
2022/04/06 17:16:25;;;;;;;12.75;9.73;;;;;;;7.96;100.00;99558.81;5217493;28;20152;-83
2022/04/06 17:18:57;;;;;;;14.30;10.90;;;;;;;7.94;100.00;99564.03;5217452;28;20026;-81
2022/04/06 17:21:29;;;;;;;14.23;10.88;;;;;;;7.93;100.00;99564.06;5217597;28;20023;-82
2022/04/06 17:24:00;;;;;;;11.50;8.57;;;;;;;7.93;100.00;99558.88;5217732;28;20114;-83
2022/04/06 17:26:34;;;;;;;10.37;8.63;;;;;;;7.90;100.00;99557.19;5217660;28;20026;-82
2022/04/06 17:29:05;;;;;;;14.18;8.75;;;;;;;7.85;100.00;99567.66;5217349;28;20104;-84
2022/04/06 17:31:38;;;;;;;9.67;7.70;;;;;;;7.85;100.00;99549.50;5199321;28;20033;-82
2022/04/06 17:34:10;;;;;;;14.45;8.45;;;;;;;7.81;100.00;99550.47;5216716;28;20034;-80
2022/04/06 17:36:41;;;;;;;16.27;8.40;;;;;;;7.83;100.00;99542.66;5216572;28;20021;-83
2022/04/06 17:39:15;;;;;;;11.63;8.50;;;;;;;7.85;100.00;99552.09;5216460;28;20424;-84
2022/04/06 17:41:47;;;;;;;11.10;7.53;;;;;;;7.81;100.00;99553.06;5217103;28;20047;-83
2022/04/06 17:44:19;;;;;;;14.75;9.23;;;;;;;7.87;100.00;99552.06;5216484;28;20100;-82
2022/04/06 17:46:51;;;;;;;12.95;8.25;;;;;;;7.84;100.00;99540.03;5217359;28;20030;-84
2022/04/06 17:49:22;;;;;;;11.60;8.40;;;;;;;7.86;100.00;99545.19;5218391;28;20157;-89
2022/04/06 17:51:59;;;;;;;13.63;9.07;;;;;;;7.77;100.00;99541.03;5198709;28;20045;-88
2022/04/06 17:54:30;;;;;;;13.50;8.82;;;;;;;7.79;100.00;99547.06;5198411;28;20034;-79
2022/04/06 17:57:04;;;;;;;9.70;8.07;;;;;;;7.77;100.00;99535.00;5216760;28;20034;-82
2022/04/06 17:59:38;;;;;;;13.68;8.00;;;;;;;7.76;100.00;99528.97;5215501;28;20033;-81
2022/04/06 18:02:09;;;;;;;12.45;8.82;;;;;;;7.74;100.00;99529.88;5214168;28;20034;-79
2022/04/06 18:04:41;;;;;;;9.37;8.00;;;;;;;7.71;100.00;99514.38;5215506;28;20026;-80
2022/04/06 18:07:12;;;;;;;17.60;9.83;;;;;;;7.77;100.00;99520.28;5214552;28;20069;-81